»·PEaware :: N704YA KCEC-KSTS

N704YA :: KCEC-KSTS

FLIGHT INFORMATION

Flight Status: Arrived
Operator: Privately registered:
United States
More flights under this callsign
Pilot: Wayne R. (17783)
Aircraft: CESSNA 150 COMMUTER AEROBAT
(C150)
More flights by this aircraft type
Origin: KCEC McNamara
United States
Destination: KSTS Sonoma Co
United States
More flights between these airports :: More routes between these airports
Route:
File this flight plan on PilotEdge
Remarks:
Altitude:
(Current/Filed)
5,500ft
Speed:
(Current/Filed)
95kts
Departed: 12-Jul-20 10:51 AM
Arrived: 12-Jul-20 12:31 PM
Distance/Time
Traveled:
207nm/1:40
Distance/Time
To Go:
Arrived

Flight Plot

Page will automatically refresh every two minutes.

Flight plan parsing failed; only flown route is shown


Map Options




Map Legend


Flown Route
Filed Route
Departure Airport
Arrival Airport
Navaid (VOR, NDB)
Fix

Horizontal Profiles

Position Reports

Time Latitude Longitude Heading Altitude Ground
Speed
12-Jul-20 10:49 40.887623 -123.844511 161 6755ft 101kts
12-Jul-20 10:50 40.865158 -123.830637 161 6839ft 99kts
12-Jul-20 10:51 40.839815 -123.814985 161 6905ft 100kts
12-Jul-20 10:52 40.815923 -123.801484 163 6956ft 99kts
12-Jul-20 10:53 40.794441 -123.789513 165 6945ft 100kts
12-Jul-20 10:54 40.768377 -123.776316 165 6973ft 101kts
12-Jul-20 10:55 40.742142 -123.763019 165 7014ft 102kts
12-Jul-20 10:56 40.715793 -123.749658 165 7062ft 100kts
12-Jul-20 10:57 40.689196 -123.736216 165 7068ft 103kts
12-Jul-20 10:58 40.662250 -123.722655 165 7086ft 104kts
12-Jul-20 10:59 40.635183 -123.709111 165 7150ft 100kts
12-Jul-20 11:00 40.608190 -123.695573 165 7142ft 104kts
12-Jul-20 11:01 40.580847 -123.681951 165 7034ft 106kts
12-Jul-20 11:02 40.553454 -123.668379 165 6910ft 108kts
12-Jul-20 11:03 40.526672 -123.655138 165 6979ft 101kts
12-Jul-20 11:04 40.500055 -123.641957 165 7029ft 100kts
12-Jul-20 11:05 40.473609 -123.628822 165 7067ft 100kts
12-Jul-20 11:06 40.447165 -123.616412 169 7114ft 98kts
12-Jul-20 11:07 40.419687 -123.607558 172 7091ft 99kts
12-Jul-20 11:08 40.391999 -123.598795 172 7048ft 102kts
12-Jul-20 11:09 40.364082 -123.590062 173 7061ft 100kts
12-Jul-20 11:10 40.336375 -123.581410 173 7054ft 98kts
12-Jul-20 11:11 40.309281 -123.572830 173 7115ft 96kts
12-Jul-20 11:12 40.282068 -123.564281 173 7101ft 101kts
12-Jul-20 11:13 40.255113 -123.555775 173 7148ft 98kts
12-Jul-20 11:14 40.228327 -123.547318 173 7165ft 99kts
12-Jul-20 11:15 40.200945 -123.538834 173 7180ft 99kts
12-Jul-20 11:16 40.173638 -123.530360 173 7191ft 100kts
12-Jul-20 11:17 40.146666 -123.521999 173 7189ft 103kts
12-Jul-20 11:18 40.119505 -123.513654 173 7227ft 100kts
12-Jul-20 11:19 40.092251 -123.505318 173 7214ft 103kts
12-Jul-20 11:20 40.064508 -123.497036 173 7240ft 100kts
12-Jul-20 11:21 40.036888 -123.488806 173 7222ft 102kts
12-Jul-20 11:22 40.009432 -123.480654 173 7207ft 104kts
12-Jul-20 11:23 39.981609 -123.472554 173 7204ft 103kts
12-Jul-20 11:24 39.953629 -123.464556 173 7195ft 103kts
12-Jul-20 11:25 39.925373 -123.456626 173 7178ft 103kts
12-Jul-20 11:26 39.897049 -123.448796 173 7152ft 104kts
12-Jul-20 11:27 39.868679 -123.441037 173 7127ft 104kts
12-Jul-20 11:28 39.840324 -123.433397 173 7099ft 104kts
12-Jul-20 11:29 39.811821 -123.425795 173 7074ft 104kts
12-Jul-20 11:30 39.783369 -123.418255 173 7050ft 104kts
12-Jul-20 11:31 39.754865 -123.410750 174 7028ft 104kts
12-Jul-20 11:32 39.727051 -123.403369 174 7091ft 100kts
12-Jul-20 11:33 39.699249 -123.396041 174 7167ft 102kts
12-Jul-20 11:34 39.670925 -123.388558 174 7253ft 103kts
12-Jul-20 11:35 39.642567 -123.381090 174 7259ft 104kts
12-Jul-20 11:36 39.614044 -123.373605 173 7224ft 104kts
12-Jul-20 11:37 39.585648 -123.364804 171 7193ft 105kts
12-Jul-20 11:38 39.557577 -123.355661 171 7164ft 105kts
12-Jul-20 11:39 39.528933 -123.346375 172 7132ft 105kts
12-Jul-20 11:40 39.500543 -123.337218 172 7093ft 105kts
12-Jul-20 11:41 39.472301 -123.328165 172 7057ft 105kts
12-Jul-20 11:42 39.443788 -123.319081 172 7023ft 105kts
12-Jul-20 11:43 39.415451 -123.310109 172 6991ft 105kts
12-Jul-20 11:44 39.386999 -123.301156 172 6965ft 105kts
12-Jul-20 11:45 39.358724 -123.292291 172 7004ft 105kts
12-Jul-20 11:46 39.330455 -123.283443 172 7038ft 104kts
12-Jul-20 11:47 39.301961 -123.274544 172 7070ft 104kts
12-Jul-20 11:48 39.273666 -123.265725 172 7100ft 104kts
12-Jul-20 11:49 39.245078 -123.257165 172 7113ft 105kts
12-Jul-20 11:50 39.216241 -123.249082 172 7124ft 105kts
12-Jul-20 11:51 39.187516 -123.241057 172 7135ft 105kts
12-Jul-20 11:52 39.158645 -123.233021 172 7147ft 105kts
12-Jul-20 11:53 39.129861 -123.225036 172 7157ft 105kts
12-Jul-20 11:54 39.101037 -123.217068 172 7167ft 105kts
12-Jul-20 11:56 39.072264 -123.209143 172 7177ft 105kts
12-Jul-20 11:57 39.043415 -123.201225 172 7186ft 106kts
12-Jul-20 11:58 39.014782 -123.191787 169 7195ft 106kts
12-Jul-20 11:59 38.986178 -123.182264 169 7204ft 106kts
12-Jul-20 12:00 38.957536 -123.172918 169 7213ft 106kts
12-Jul-20 12:01 38.928879 -123.163751 169 7218ft 105kts
12-Jul-20 12:02 38.900147 -123.154770 169 7134ft 105kts
12-Jul-20 12:03 38.871249 -123.145983 169 7006ft 106kts
12-Jul-20 12:04 38.842304 -123.137590 170 6846ft 107kts
12-Jul-20 12:05 38.812997 -123.129711 170 6681ft 107kts
12-Jul-20 12:06 38.786180 -123.122905 170 6686ft 89kts
12-Jul-20 12:07 38.761009 -123.116027 170 6534ft 92kts
12-Jul-20 12:08 38.735748 -123.108618 170 6403ft 93kts
12-Jul-20 12:09 38.710407 -123.100767 170 6284ft 93kts
12-Jul-20 12:10 38.685084 -123.092920 170 6177ft 93kts
12-Jul-20 12:11 38.659815 -123.085200 170 6077ft 93kts
12-Jul-20 12:12 38.634556 -123.077588 170 5981ft 93kts
12-Jul-20 12:13 38.609334 -123.070089 170 5889ft 92kts
12-Jul-20 12:14 38.583762 -123.062632 170 5646ft 93kts
12-Jul-20 12:14 38.562567 -123.056566 170 5458ft 94kts
12-Jul-20 12:16 38.532920 -123.048245 170 5215ft 93kts
12-Jul-20 12:16 38.511768 -123.042421 170 5049ft 93kts
12-Jul-20 12:17 38.486523 -123.035584 170 4860ft 93kts
12-Jul-20 12:19 38.456678 -123.027039 168 4580ft 94kts
12-Jul-20 12:19 38.435175 -123.020412 168 4332ft 95kts
12-Jul-20 12:20 38.409400 -123.012602 168 4067ft 95kts
12-Jul-20 12:21 38.384078 -123.003577 147 3778ft 99kts
12-Jul-20 12:22 38.371580 -122.972877 107 3451ft 98kts
12-Jul-20 12:23 38.376408 -122.937038 67 2715ft 103kts
12-Jul-20 12:24 38.395915 -122.909649 48 2137ft 103kts
12-Jul-20 12:25 38.417522 -122.885534 42 1601ft 102kts
12-Jul-20 12:26 38.440229 -122.863459 34 1070ft 102kts
12-Jul-20 12:27 38.465083 -122.847776 24 872ft 98kts
12-Jul-20 12:28 38.488765 -122.830767 30 683ft 95kts
12-Jul-20 12:29 38.509332 -122.816579 30 118ft 46kts
12-Jul-20 12:30 38.511265 -122.808197 17 117ft 22kts
12-Jul-20 12:31 38.511934 -122.807249 183 115ft 0kts
12-Jul-20 12:32 38.511934 -122.807249 183 115ft 0kts
12-Jul-20 12:33 38.511934 -122.807249 183 115ft 0kts
12-Jul-20 12:34 38.511934 -122.807249 183 115ft 0kts
12-Jul-20 12:35 38.511934 -122.807249 183 115ft 0kts
12-Jul-20 12:36 38.511934 -122.807249 183 115ft 0kts
12-Jul-20 12:37 38.511934 -122.807249 183 115ft 0kts

Navigation Log

Ident Type
Flight plan parsing failed, navigation log unavailable